Time;durP1;ratioP1;P1;durP2;ratioP2;P2;SDS_P1;SDS_P2;PMS_P1;PMS_P2;Temp;Humidity;BMP_temperature;BMP_pressure;BME280_temperature;BME280_humidity;BME280_pressure;Samples;Min_cycle;Max_cycle;Signal;HPM_P1;HPM_P2
2022/08/30 00:03:06;;;;;;;3.47;1.20;;;;;;;15.87;59.88;101027.13;5036985;28;20056;-75
2022/08/30 00:05:32;;;;;;;2.30;1.02;;;;;;;15.87;59.58;101027.13;5039673;28;20021;-76
2022/08/30 00:07:58;;;;;;;1.65;1.05;;;;;;;15.78;60.03;101017.81;5044693;28;20025;-72
2022/08/30 00:10:25;;;;;;;2.45;1.45;;;;;;;15.71;60.38;101006.25;5038253;28;20049;-74
2022/08/30 00:12:51;;;;;;;2.40;1.13;;;;;;;15.81;60.44;101017.25;5037983;28;20108;-75
2022/08/30 00:15:17;;;;;;;1.65;1.10;;;;;;;15.86;60.04;101014.44;5036873;28;20053;-75
2022/08/30 00:17:43;;;;;;;2.53;1.08;;;;;;;15.81;60.31;101011.75;5033979;28;20041;-75
2022/08/30 00:20:13;;;;;;;3.75;1.30;;;;;;;15.75;60.70;101001.81;5022912;28;20391;-76
2022/08/30 00:22:39;;;;;;;4.43;1.27;;;;;;;15.79;60.38;101015.91;5032491;28;20028;-74
2022/08/30 00:25:05;;;;;;;3.67;0.82;;;;;;;15.73;60.47;101011.50;5028304;28;20058;-75
2022/08/30 00:27:31;;;;;;;1.88;1.20;;;;;;;15.68;60.55;101004.06;5026744;28;20037;-76
2022/08/30 00:29:58;;;;;;;2.35;1.20;;;;;;;15.67;60.74;101010.72;5030148;28;20164;-75
2022/08/30 00:32:23;;;;;;;2.58;1.13;;;;;;;15.64;61.03;101022.31;5035004;28;20033;-74
2022/08/30 00:34:53;;;;;;;2.28;1.00;;;;;;;15.62;60.57;101014.28;5030178;28;20032;-74
2022/08/30 00:37:19;;;;;;;3.17;1.23;;;;;;;15.71;60.96;101022.78;5023634;28;20037;-75
2022/08/30 00:39:45;;;;;;;2.08;0.82;;;;;;;15.63;60.82;101026.16;5030131;28;20483;-75
2022/08/30 00:42:12;;;;;;;2.85;1.15;;;;;;;15.49;61.21;101029.56;5031619;28;20045;-75
2022/08/30 00:44:38;;;;;;;4.00;1.30;;;;;;;15.50;61.40;101036.69;5043857;28;20118;-75
2022/08/30 00:47:04;;;;;;;1.38;1.02;;;;;;;15.52;61.57;101030.91;5034847;28;20033;-75
2022/08/30 00:49:31;;;;;;;2.47;1.20;;;;;;;15.47;61.55;101023.50;5035477;28;20035;-74
2022/08/30 00:51:57;;;;;;;3.33;1.00;;;;;;;15.47;61.56;101017.16;5049111;28;20036;-76
2022/08/30 00:54:24;;;;;;;3.90;1.02;;;;;;;15.49;61.78;101018.53;5051268;28;20036;-74
2022/08/30 00:56:51;;;;;;;2.83;1.10;;;;;;;15.43;61.43;101027.09;5052792;28;20471;-74
2022/08/30 00:59:17;;;;;;;3.10;0.80;;;;;;;15.29;62.16;101016.72;5015775;28;20482;-76
2022/08/30 01:01:43;;;;;;;2.90;1.13;;;;;;;15.35;62.35;101017.50;5034708;28;20072;-75
2022/08/30 01:04:10;;;;;;;3.70;1.10;;;;;;;15.33;62.56;101023.31;5014787;28;20982;-74
2022/08/30 01:06:38;;;;;;;2.20;1.10;;;;;;;15.28;62.64;101023.31;5029165;28;20063;-76
2022/08/30 01:09:04;;;;;;;1.65;1.00;;;;;;;15.28;62.70;101025.25;5034487;28;20096;-74
2022/08/30 01:11:33;;;;;;;5.47;1.08;;;;;;;15.18;62.65;101032.44;5013837;28;20021;-75
2022/08/30 01:14:00;;;;;;;0.70;0.70;;;;;;;15.14;62.72;101036.06;5033144;28;20045;-74
2022/08/30 01:16:26;;;;;;;2.28;1.48;;;;;;;15.16;63.16;101034.66;5054221;28;20475;-75
2022/08/30 01:18:56;;;;;;;2.63;1.42;;;;;;;15.21;63.07;101033.00;5036255;28;20124;-73
2022/08/30 01:21:31;;;;;;;2.83;1.08;;;;;;;15.25;62.91;101034.91;5053112;28;20080;-73
2022/08/30 01:23:59;;;;;;;1.88;0.93;;;;;;;15.21;63.26;101035.75;5047305;28;20053;-74
2022/08/30 01:26:27;;;;;;;1.45;0.93;;;;;;;15.13;62.94;101035.25;5025751;28;20056;-76
2022/08/30 01:28:57;;;;;;;1.02;0.68;;;;;;;15.00;63.29;101031.16;5032791;28;20075;-76
2022/08/30 01:31:22;;;;;;;1.40;1.08;;;;;;;14.98;63.48;101040.78;5023957;28;20114;-75
2022/08/30 01:33:49;;;;;;;1.55;0.82;;;;;;;14.92;63.30;101041.91;5049894;28;20417;-76
2022/08/30 01:36:17;;;;;;;3.13;0.90;;;;;;;14.80;63.98;101034.78;5034696;28;20368;-76
2022/08/30 01:38:55;;;;;;;0.88;0.60;;;;;;;14.71;64.10;101036.47;5034769;28;20029;-75
2022/08/30 01:41:22;;;;;;;2.28;0.88;;;;;;;14.71;64.14;101033.72;5028366;28;20025;-76
2022/08/30 01:43:50;;;;;;;1.40;0.80;;;;;;;14.74;64.59;101033.16;5031508;28;20029;-76
2022/08/30 01:46:17;;;;;;;1.67;1.20;;;;;;;14.75;64.08;101040.31;4998670;28;20026;-74
2022/08/30 01:48:45;;;;;;;2.63;1.30;;;;;;;14.71;64.32;101039.22;5032344;28;20120;-77
2022/08/30 01:51:12;;;;;;;2.85;1.00;;;;;;;14.76;64.93;101047.47;5036307;28;20051;-74
2022/08/30 01:53:40;;;;;;;3.22;1.17;;;;;;;14.77;64.81;101043.59;5033899;28;20033;-75
2022/08/30 01:56:07;;;;;;;5.00;1.27;;;;;;;14.85;64.65;101044.97;5026422;28;20013;-77
2022/08/30 01:58:34;;;;;;;1.15;0.77;;;;;;;14.80;64.55;101050.50;5028832;28;20021;-76
2022/08/30 02:00:59;;;;;;;2.40;1.42;;;;;;;14.84;64.96;101049.66;5012051;28;20163;-76
2022/08/30 02:03:29;;;;;;;2.88;1.08;;;;;;;14.89;65.03;101053.50;5028632;28;20025;-76
2022/08/30 02:05:55;;;;;;;2.42;0.90;;;;;;;14.82;65.08;101051.88;5029314;28;20112;-74
2022/08/30 02:08:20;;;;;;;2.75;0.98;;;;;;;14.81;65.03;101052.97;5033719;28;20418;-74
2022/08/30 02:10:46;;;;;;;3.45;1.10;;;;;;;14.86;64.94;101048.56;5013409;28;20029;-75
2022/08/30 02:13:11;;;;;;;7.65;1.20;;;;;;;14.86;64.93;101056.81;5023685;28;20040;-74
2022/08/30 02:15:37;;;;;;;2.40;1.20;;;;;;;14.94;65.49;101054.31;5030692;28;20075;-74
2022/08/30 02:18:03;;;;;;;3.70;1.40;;;;;;;14.89;65.52;101043.28;5029866;28;20060;-73
2022/08/30 02:20:28;;;;;;;1.65;1.00;;;;;;;14.93;65.21;101051.84;5008990;28;20483;-75
2022/08/30 02:22:54;;;;;;;2.15;0.98;;;;;;;14.88;65.34;101060.09;4997959;28;20040;-74
2022/08/30 02:25:20;;;;;;;2.58;1.05;;;;;;;14.69;65.29;101046.09;5031315;28;20112;-73
2022/08/30 02:27:46;;;;;;;2.05;1.02;;;;;;;14.58;65.41;101056.28;5022168;28;20029;-75
2022/08/30 02:30:12;;;;;;;3.42;0.95;;;;;;;14.46;65.47;101049.13;5020044;28;20511;-73
2022/08/30 02:32:37;;;;;;;2.58;1.13;;;;;;;14.37;65.96;101050.81;5030155;28;20034;-74
2022/08/30 02:35:03;;;;;;;2.97;1.05;;;;;;;14.35;66.48;101041.19;5015468;28;20040;-74
2022/08/30 02:37:28;;;;;;;2.75;1.20;;;;;;;14.34;66.31;101045.88;5030214;28;20364;-73
2022/08/30 02:39:54;;;;;;;5.25;1.20;;;;;;;14.26;66.74;101046.41;5031617;28;20041;-74
2022/08/30 02:42:19;;;;;;;4.30;1.33;;;;;;;14.27;66.69;101053.56;5024738;28;20047;-73
2022/08/30 02:44:44;;;;;;;3.33;1.13;;;;;;;14.19;66.73;101046.66;5039476;28;20033;-74
2022/08/30 02:47:11;;;;;;;1.52;1.08;;;;;;;14.17;67.29;101045.31;5012494;28;20033;-74
2022/08/30 02:49:36;;;;;;;6.10;1.45;;;;;;;14.22;67.24;101042.56;5030685;28;20037;-75
2022/08/30 02:52:05;;;;;;;2.63;1.00;;;;;;;14.21;67.12;101046.44;5031358;28;20022;-75
2022/08/30 02:54:32;;;;;;;2.40;1.17;;;;;;;14.22;67.51;101045.31;5019583;28;20025;-74
2022/08/30 02:57:01;;;;;;;2.28;1.10;;;;;;;14.26;67.54;101043.66;5031082;28;20020;-74
2022/08/30 02:59:27;;;;;;;2.25;1.00;;;;;;;14.26;67.27;101043.66;5035027;28;20029;-75
2022/08/30 03:01:52;;;;;;;2.17;1.10;;;;;;;14.27;67.41;101050.81;4995565;28;20033;-75
2022/08/30 03:04:18;;;;;;;2.78;1.15;;;;;;;14.23;67.42;101035.97;5011655;28;20087;-73
2022/08/30 03:06:43;;;;;;;3.00;1.17;;;;;;;14.22;67.35;101045.31;5040985;28;20057;-74
2022/08/30 03:09:08;;;;;;;1.45;0.98;;;;;;;14.17;67.62;101046.13;5030069;28;20535;-75
2022/08/30 03:11:34;;;;;;;1.38;1.05;;;;;;;14.09;67.53;101046.66;5032931;28;20040;-74
2022/08/30 03:13:59;;;;;;;1.95;1.00;;;;;;;14.01;67.78;101042.56;5014622;28;20033;-74
2022/08/30 03:16:25;;;;;;;2.22;1.40;;;;;;;13.98;67.86;101037.59;5013765;28;20111;-74
2022/08/30 03:18:50;;;;;;;2.75;1.27;;;;;;;13.93;68.15;101040.34;5036420;28;20108;-75
2022/08/30 03:21:16;;;;;;;5.13;1.20;;;;;;;13.89;68.09;101039.25;5020671;28;20040;-76
2022/08/30 03:23:42;;;;;;;3.42;1.48;;;;;;;13.78;68.68;101036.50;5037995;28;20460;-75
2022/08/30 03:26:09;;;;;;;2.38;0.98;;;;;;;13.65;68.71;101028.75;5023646;28;20033;-74
2022/08/30 03:28:34;;;;;;;1.67;1.10;;;;;;;13.72;68.47;101028.50;5032025;28;20034;-76
2022/08/30 03:31:00;;;;;;;2.20;1.33;;;;;;;13.86;68.73;101034.31;5030424;28;20047;-75
2022/08/30 03:33:26;;;;;;;3.10;1.25;;;;;;;13.86;68.87;101028.81;5046977;28;20036;-73
2022/08/30 03:35:51;;;;;;;2.78;1.08;;;;;;;13.76;68.70;101024.94;5038553;28;20069;-72
2022/08/30 03:38:17;;;;;;;4.63;1.40;;;;;;;13.76;68.88;101029.63;5002297;28;20033;-73
2022/08/30 03:40:42;;;;;;;1.73;1.13;;;;;;;13.74;69.00;101027.13;5033432;28;20053;-74
2022/08/30 03:43:08;;;;;;;2.20;1.10;;;;;;;13.73;69.25;101009.00;5025793;28;20050;-74
2022/08/30 03:45:33;;;;;;;3.30;1.50;;;;;;;13.67;69.18;101001.84;4992963;28;20033;-73
2022/08/30 03:48:01;;;;;;;3.45;1.48;;;;;;;13.67;69.45;101010.09;5028295;28;20732;-73
2022/08/30 03:50:27;;;;;;;3.42;1.38;;;;;;;13.63;69.17;101008.16;5029038;28;20033;-74
2022/08/30 03:52:53;;;;;;;3.85;1.35;;;;;;;13.63;69.72;100997.97;5031443;28;20030;-73
2022/08/30 03:55:19;;;;;;;2.15;1.30;;;;;;;13.66;69.88;100997.44;5029705;28;20507;-74
2022/08/30 03:57:45;;;;;;;3.03;1.23;;;;;;;13.61;69.76;101006.50;5039373;28;20471;-73
2022/08/30 04:00:12;;;;;;;2.70;1.10;;;;;;;13.51;69.51;101005.66;5010006;28;20092;-73
2022/08/30 04:02:37;;;;;;;2.22;1.13;;;;;;;13.45;70.43;101004.81;5038267;28;20505;-73
2022/08/30 04:05:03;;;;;;;4.88;1.25;;;;;;;13.44;70.24;101001.22;5031690;28;20029;-73
2022/08/30 04:07:29;;;;;;;3.00;1.02;;;;;;;13.40;69.87;101011.13;4993883;28;20387;-73
2022/08/30 04:09:54;;;;;;;2.95;1.20;;;;;;;13.28;70.65;101005.81;5030989;28;20120;-74
2022/08/30 04:12:20;;;;;;;1.65;1.33;;;;;;;13.28;70.80;101013.25;5030339;28;20048;-74
2022/08/30 04:14:45;;;;;;;3.33;1.38;;;;;;;13.20;70.94;101005.53;5031086;28;20036;-74
2022/08/30 04:17:10;;;;;;;2.35;1.38;;;;;;;13.05;70.91;100996.16;5013040;28;20022;-75
2022/08/30 04:19:36;;;;;;;2.70;1.13;;;;;;;12.99;71.24;101005.44;5030742;28;20108;-74
2022/08/30 04:22:01;;;;;;;3.30;1.10;;;;;;;12.93;71.79;101014.75;5032567;28;20033;-74
2022/08/30 04:24:27;;;;;;;3.38;1.20;;;;;;;12.92;71.78;101021.34;5032923;28;20037;-74
2022/08/30 04:26:52;;;;;;;2.20;1.10;;;;;;;12.89;71.92;101010.91;5031026;28;20037;-74
2022/08/30 04:29:18;;;;;;;2.00;1.05;;;;;;;12.90;72.19;101018.03;5032132;28;20037;-73
2022/08/30 04:31:44;;;;;;;1.95;1.10;;;;;;;12.82;72.33;101010.31;5031092;28;20025;-74
2022/08/30 04:34:11;;;;;;;6.97;1.38;;;;;;;12.88;72.13;101009.25;5014057;28;20041;-73
2022/08/30 04:36:36;;;;;;;2.42;1.10;;;;;;;12.85;72.44;101005.13;5012741;28;20032;-74
2022/08/30 04:39:03;;;;;;;3.28;1.30;;;;;;;12.90;72.96;101021.59;5031536;28;20033;-74
2022/08/30 04:41:28;;;;;;;1.58;1.10;;;;;;;12.90;72.16;101015.31;5033282;28;20668;-74
2022/08/30 04:43:54;;;;;;;2.65;1.20;;;;;;;12.86;72.32;101017.75;5038792;28;20032;-73
2022/08/30 04:46:19;;;;;;;2.63;1.30;;;;;;;12.84;72.21;101014.44;4997934;28;20043;-74
2022/08/30 04:48:46;;;;;;;2.22;1.20;;;;;;;12.87;73.18;101018.59;5050930;28;20037;-73
2022/08/30 04:51:15;;;;;;;1.63;1.00;;;;;;;12.95;72.61;101014.50;5048945;28;20031;-74
2022/08/30 04:53:41;;;;;;;2.67;1.40;;;;;;;12.99;72.48;101016.44;5048532;28;20380;-74
2022/08/30 04:56:09;;;;;;;1.92;1.00;;;;;;;13.07;73.00;101020.59;5049771;28;20082;-73
2022/08/30 04:58:35;;;;;;;3.35;1.27;;;;;;;13.13;72.54;101015.94;5050335;28;20025;-74
2022/08/30 05:01:00;;;;;;;3.33;1.25;;;;;;;13.12;72.58;101030.78;5028792;28;20401;-74
2022/08/30 05:03:25;;;;;;;1.55;1.00;;;;;;;13.09;72.11;101032.94;5014846;28;20514;-75
2022/08/30 05:05:51;;;;;;;1.75;1.17;;;;;;;13.06;72.28;101024.44;5041729;28;20029;-74
2022/08/30 05:08:20;;;;;;;3.53;1.10;;;;;;;13.15;72.91;101025.56;5041258;28;20016;-75
2022/08/30 05:10:48;;;;;;;1.70;1.15;;;;;;;13.20;72.74;101027.50;5049886;28;20025;-74
2022/08/30 05:13:16;;;;;;;2.58;1.33;;;;;;;13.18;72.57;101030.50;5050398;28;20063;-75
2022/08/30 05:15:42;;;;;;;1.63;1.20;;;;;;;13.15;72.67;101035.72;5026301;28;20033;-76
2022/08/30 05:18:08;;;;;;;2.80;1.20;;;;;;;13.13;72.41;101046.13;5044921;28;20135;-74
2022/08/30 05:20:35;;;;;;;1.73;1.23;;;;;;;13.04;72.56;101041.19;5031264;28;20036;-74
2022/08/30 05:23:01;;;;;;;3.45;1.40;;;;;;;12.98;73.26;101039.50;5050576;28;20035;-75
2022/08/30 05:25:33;;;;;;;2.72;1.15;;;;;;;12.96;73.43;101049.91;5029397;28;20058;-74
2022/08/30 05:27:58;;;;;;;2.63;1.10;;;;;;;12.93;73.42;101042.22;5032243;28;20371;-74
2022/08/30 05:30:26;;;;;;;1.88;1.23;;;;;;;12.87;73.75;101046.03;5048500;28;20025;-74
2022/08/30 05:32:53;;;;;;;3.67;1.00;;;;;;;12.83;74.24;101045.72;5049765;28;20024;-73
2022/08/30 05:35:20;;;;;;;4.15;1.45;;;;;;;12.78;73.91;101042.16;5047140;28;20024;-74
2022/08/30 05:37:46;;;;;;;2.35;1.20;;;;;;;12.80;74.06;101043.50;5049259;28;20037;-72
2022/08/30 05:40:12;;;;;;;2.38;1.23;;;;;;;12.79;74.02;101043.78;5032927;28;20066;-74
2022/08/30 05:42:40;;;;;;;1.40;1.10;;;;;;;12.73;74.79;101046.50;5041242;28;20073;-73
2022/08/30 05:45:07;;;;;;;3.65;1.40;;;;;;;12.90;74.31;101050.97;5000802;28;20031;-73
2022/08/30 05:47:32;;;;;;;2.75;1.27;;;;;;;13.00;74.53;101039.25;5026430;28;20067;-73
2022/08/30 05:49:57;;;;;;;2.67;1.30;;;;;;;13.04;74.34;101052.16;5009018;28;20534;-74
2022/08/30 05:52:23;;;;;;;4.60;1.20;;;;;;;13.03;73.96;101045.00;5004273;28;20037;-74
2022/08/30 05:54:57;;;;;;;2.40;1.20;;;;;;;13.16;73.97;101051.13;5010762;28;20029;-77
2022/08/30 05:57:24;;;;;;;2.78;1.50;;;;;;;13.27;74.26;101050.88;5033749;28;20103;-74
2022/08/30 05:59:50;;;;;;;7.68;1.38;;;;;;;13.33;73.99;101054.47;5030523;28;20069;-75
2022/08/30 06:02:15;;;;;;;3.88;1.27;;;;;;;13.36;73.66;101062.22;5012686;28;20067;-75
2022/08/30 06:04:40;;;;;;;1.20;0.93;;;;;;;13.36;73.75;101064.97;5019523;28;20041;-74
2022/08/30 06:07:06;;;;;;;1.63;0.98;;;;;;;13.50;73.49;101069.94;5007395;28;20029;-76
2022/08/30 06:09:31;;;;;;;2.15;1.15;;;;;;;13.57;72.87;101070.53;5033452;28;20025;-76
2022/08/30 06:11:57;;;;;;;2.00;0.80;;;;;;;13.69;73.09;101053.78;5016422;28;20033;-74
2022/08/30 06:14:23;;;;;;;1.38;0.80;;;;;;;13.81;73.00;101064.53;5011843;28;20773;-76
2022/08/30 06:16:50;;;;;;;2.58;1.10;;;;;;;13.83;72.27;101063.16;5025738;28;20017;-77
2022/08/30 06:19:16;;;;;;;1.38;0.80;;;;;;;13.87;72.81;101068.94;5034379;28;20375;-75
2022/08/30 06:21:42;;;;;;;2.90;1.13;;;;;;;13.96;72.55;101072.81;5034105;28;20038;-76
2022/08/30 06:24:10;;;;;;;2.28;1.02;;;;;;;14.02;72.42;101066.22;5038144;28;20026;-74
2022/08/30 06:26:40;;;;;;;2.80;0.98;;;;;;;14.07;72.24;101068.94;5021451;28;20498;-75
2022/08/30 06:29:06;;;;;;;1.38;0.95;;;;;;;14.19;72.00;101067.84;5026731;28;20040;-74
2022/08/30 06:31:32;;;;;;;2.17;0.82;;;;;;;14.34;71.62;101072.53;5027635;28;21003;-72
2022/08/30 06:33:57;;;;;;;1.85;1.17;;;;;;;14.37;71.22;101060.97;5008836;28;20041;-72
2022/08/30 06:36:24;;;;;;;4.05;1.00;;;;;;;14.49;71.25;101073.34;4994166;28;20072;-74
2022/08/30 06:38:54;;;;;;;3.28;1.15;;;;;;;14.58;70.87;101067.31;5024184;28;20448;-75
2022/08/30 06:41:26;;;;;;;1.17;0.70;;;;;;;14.65;70.67;101067.88;5016973;28;20025;-76
2022/08/30 06:43:53;;;;;;;1.05;0.75;;;;;;;14.70;70.48;101065.09;5046022;28;20459;-76
2022/08/30 06:46:22;;;;;;;2.35;0.82;;;;;;;14.75;70.42;101056.03;5030583;28;20056;-76
2022/08/30 06:48:47;;;;;;;2.13;1.02;;;;;;;14.84;70.39;101059.84;5032704;28;20036;-77
2022/08/30 06:51:13;;;;;;;5.47;1.13;;;;;;;14.95;70.22;101066.13;5014026;28;20017;-75
2022/08/30 06:53:39;;;;;;;1.48;1.00;;;;;;;15.03;69.74;101065.56;5030504;28;20029;-75
2022/08/30 06:56:13;;;;;;;2.15;0.88;;;;;;;15.23;69.55;101075.72;5032547;28;20075;-76
2022/08/30 06:58:39;;;;;;;2.15;0.95;;;;;;;15.40;69.07;101061.56;5030570;28;20056;-77
2022/08/30 07:01:06;;;;;;;1.30;0.98;;;;;;;15.64;68.59;101082.97;5046632;28;20036;-73
2022/08/30 07:03:34;;;;;;;2.08;1.00;;;;;;;15.80;67.79;101079.03;5028990;28;20414;-74
2022/08/30 07:05:59;;;;;;;1.60;0.80;;;;;;;15.93;67.08;101085.84;5050041;28;20422;-74
2022/08/30 07:08:26;;;;;;;2.03;0.82;;;;;;;16.08;67.12;101086.81;5047468;28;20025;-75
2022/08/30 07:10:55;;;;;;;1.80;0.90;;;;;;;16.31;66.82;101085.28;5040846;28;20029;-74
2022/08/30 07:13:22;;;;;;;5.32;1.05;;;;;;;16.48;66.12;101085.69;5051758;28;20071;-75
2022/08/30 07:15:48;;;;;;;1.48;0.95;;;;;;;16.67;65.70;101079.44;5052564;28;20467;-73
2022/08/30 07:21:04;;;;;;;3.38;1.23;;;;;;;17.17;64.67;101080.03;5043772;28;20028;-74
2022/08/30 07:23:29;;;;;;;5.00;1.17;;;;;;;17.45;63.46;101074.72;5049227;28;20036;-74
2022/08/30 07:25:55;;;;;;;3.65;1.00;;;;;;;17.68;62.75;101078.53;5040325;28;20040;-74
2022/08/30 07:28:21;;;;;;;1.63;1.10;;;;;;;17.95;62.03;101072.38;5053274;28;20051;-74
2022/08/30 07:30:46;;;;;;;1.98;1.15;;;;;;;18.21;61.54;101080.28;5052360;28;20035;-75
2022/08/30 07:33:12;;;;;;;3.22;1.15;;;;;;;18.35;60.83;101079.50;5052318;28;20025;-74
2022/08/30 07:35:37;;;;;;;2.05;0.93;;;;;;;18.64;60.69;101082.84;5051772;28;20116;-75
2022/08/30 07:38:03;;;;;;;1.15;0.68;;;;;;;18.78;60.01;101065.44;5033842;28;20133;-76
2022/08/30 07:40:28;;;;;;;2.72;0.90;;;;;;;19.02;59.33;101077.16;5052305;28;20144;-74
2022/08/30 07:42:54;;;;;;;2.58;1.05;;;;;;;19.03;58.88;101083.56;5034932;28;20099;-75
2022/08/30 07:45:19;;;;;;;2.75;1.10;;;;;;;19.00;58.83;101087.75;5054684;28;20025;-75
2022/08/30 07:47:45;;;;;;;2.13;0.98;;;;;;;19.04;58.40;101084.38;5047975;28;20020;-76
2022/08/30 07:50:11;;;;;;;1.50;0.80;;;;;;;19.20;58.48;101082.91;5038642;28;20044;-75
2022/08/30 07:52:37;;;;;;;3.20;1.10;;;;;;;19.35;58.48;101082.63;5053293;28;20025;-76
2022/08/30 07:55:04;;;;;;;2.25;1.10;;;;;;;19.85;57.65;101087.38;5053770;28;20056;-75
2022/08/30 07:57:33;;;;;;;9.45;1.25;;;;;;;20.32;56.44;101084.31;5058724;28;20036;-73
2022/08/30 07:59:59;;;;;;;3.00;1.00;;;;;;;20.58;55.52;101086.44;5015752;28;20033;-74
2022/08/30 08:02:26;;;;;;;2.63;1.05;;;;;;;20.45;55.52;101092.91;5051953;28;20084;-72
2022/08/30 08:04:51;;;;;;;4.20;1.55;;;;;;;20.26;56.04;101084.78;5033695;28;20076;-75
2022/08/30 08:07:17;;;;;;;1.52;0.93;;;;;;;20.18;56.22;101089.09;5036690;28;20748;-76
2022/08/30 08:09:43;;;;;;;4.65;1.40;;;;;;;20.21;55.89;101088.50;5035195;28;20029;-73
2022/08/30 08:12:09;;;;;;;1.83;1.00;;;;;;;20.10;56.03;101087.09;5052049;28;20059;-74
2022/08/30 08:14:34;;;;;;;2.80;0.90;;;;;;;20.02;56.69;101091.47;5031873;28;20375;-72
2022/08/30 08:17:00;;;;;;;5.47;1.20;;;;;;;20.09;56.68;101091.00;5017358;28;20048;-74
2022/08/30 08:19:26;;;;;;;1.95;1.08;;;;;;;20.34;56.46;101098.72;5040353;28;20063;-74
2022/08/30 08:21:55;;;;;;;2.70;0.88;;;;;;;20.53;55.49;101094.91;5032332;28;20475;-75
2022/08/30 08:24:27;;;;;;;4.35;1.15;;;;;;;20.63;55.09;101091.84;5025860;28;20509;-73
2022/08/30 08:26:53;;;;;;;3.15;1.17;;;;;;;20.92;54.63;101085.00;5045773;28;20025;-74
2022/08/30 08:29:19;;;;;;;2.92;0.93;;;;;;;21.26;53.79;101089.91;5061656;28;20036;-73
2022/08/30 08:31:45;;;;;;;3.40;1.08;;;;;;;21.50;53.21;101083.06;5032643;28;20078;-75
2022/08/30 08:34:11;;;;;;;2.42;0.90;;;;;;;21.81;51.95;101093.28;5050793;28;20375;-75
2022/08/30 08:36:37;;;;;;;3.13;1.02;;;;;;;21.87;51.55;101089.19;5047928;28;20029;-76
2022/08/30 08:39:05;;;;;;;5.00;1.20;;;;;;;22.02;51.87;101092.63;5017821;28;20040;-74
2022/08/30 08:42:06;;;;;;;4.35;0.90;;;;;;;22.45;50.45;101095.41;5046734;28;20033;-73
2022/08/30 08:44:56;;;;;;;4.07;1.33;;;;;;;22.61;50.38;101087.34;5045074;28;20901;-73
2022/08/30 08:47:34;;;;;;;2.15;1.00;;;;;;;22.82;50.00;101093.06;5023627;28;20396;-76
2022/08/30 08:50:03;;;;;;;1.90;0.85;;;;;;;22.61;49.53;101069.81;5048408;28;20017;-76
2022/08/30 08:55:24;;;;;;;2.90;1.10;;;;;;;22.94;48.81;101094.28;5048731;28;20760;-74
2022/08/30 08:57:51;;;;;;;5.78;1.00;;;;;;;23.17;48.41;101087.34;5031178;28;20063;-74
2022/08/30 09:00:17;;;;;;;1.98;1.02;;;;;;;23.48;47.58;101086.19;5048759;28;20112;-74
2022/08/30 09:02:45;;;;;;;3.58;1.10;;;;;;;23.51;47.10;101081.91;5031316;28;20166;-76
2022/08/30 09:05:17;;;;;;;3.75;0.95;;;;;;;23.46;47.45;101082.91;5034221;28;20021;-74
2022/08/30 09:07:48;;;;;;;0.60;0.60;;;;;;;23.40;46.94;101089.03;5046815;28;20039;-76
2022/08/30 09:10:15;;;;;;;2.42;0.88;;;;;;;23.20;47.83;101079.47;5050955;28;20025;-73
2022/08/30 09:12:43;;;;;;;2.75;1.15;;;;;;;23.16;47.79;101082.91;5017660;28;20043;-74
2022/08/30 09:15:16;;;;;;;2.42;1.08;;;;;;;23.07;47.38;101079.34;5028461;28;20164;-74
2022/08/30 09:17:53;;;;;;;4.07;0.90;;;;;;;22.94;47.79;101083.97;5049626;28;20025;-75
2022/08/30 09:20:26;;;;;;;2.58;1.05;;;;;;;22.82;47.47;101090.25;5029495;28;20032;-73
2022/08/30 09:22:52;;;;;;;5.83;1.20;;;;;;;22.86;47.52;101092.38;5033127;28;20032;-73
2022/08/30 09:25:31;;;;;;;1.83;0.80;;;;;;;22.77;47.57;101087.63;5049630;28;20289;-74
2022/08/30 09:28:10;;;;;;;8.13;1.02;;;;;;;22.83;48.28;101077.13;5021569;28;20025;-77
2022/08/30 09:30:36;;;;;;;3.90;1.00;;;;;;;22.97;47.92;101090.88;5045663;28;20032;-77
2022/08/30 09:33:06;;;;;;;2.13;0.70;;;;;;;23.05;47.57;101076.03;5047982;28;20079;-75
2022/08/30 09:35:40;;;;;;;2.38;0.98;;;;;;;23.04;46.80;101088.34;5048607;28;20025;-72
2022/08/30 09:38:10;;;;;;;1.73;0.80;;;;;;;23.02;47.74;101087.88;5045294;28;20470;-73
2022/08/30 09:40:42;;;;;;;5.88;0.90;;;;;;;23.22;47.21;101093.88;5049209;28;20090;-73
2022/08/30 09:43:16;;;;;;;3.38;0.90;;;;;;;23.51;46.84;101085.50;5026156;28;20049;-74
2022/08/30 09:45:48;;;;;;;5.43;1.35;;;;;;;23.77;45.33;101092.91;5033079;28;20437;-73
2022/08/30 09:48:25;;;;;;;3.83;1.17;;;;;;;24.00;45.34;101092.56;5048791;28;20025;-74
2022/08/30 09:51:09;;;;;;;3.78;1.10;;;;;;;24.40;44.53;101089.25;5050187;28;20028;-75
2022/08/30 09:53:41;;;;;;;2.08;0.85;;;;;;;24.62;44.10;101090.03;5031880;28;20025;-75
2022/08/30 09:56:22;;;;;;;1.85;0.70;;;;;;;25.19;43.79;101080.78;5024091;28;20033;-76
2022/08/30 09:59:23;;;;;;;4.13;1.00;;;;;;;25.63;42.71;101096.16;5044174;28;20052;-73
2022/08/30 10:01:53;;;;;;;2.80;0.98;;;;;;;25.81;41.72;101096.72;5009606;28;20037;-73
2022/08/30 10:04:23;;;;;;;5.57;1.02;;;;;;;25.90;41.25;101095.38;5049497;28;20021;-74
2022/08/30 10:06:54;;;;;;;4.20;1.20;;;;;;;25.96;40.81;101105.19;5047147;28;20079;-74
2022/08/30 10:09:34;;;;;;;3.15;0.88;;;;;;;26.03;41.03;101101.00;5029968;28;20162;-75
2022/08/30 10:12:15;;;;;;;2.33;0.80;;;;;;;26.41;39.62;101096.88;5043073;28;20071;-73
2022/08/30 10:14:55;;;;;;;5.75;1.15;;;;;;;26.85;39.72;101096.06;5044873;28;20020;-76
2022/08/30 10:17:47;;;;;;;2.22;1.05;;;;;;;27.07;38.46;101100.22;5048949;28;20017;-75
2022/08/30 10:20:35;;;;;;;1.48;0.70;;;;;;;26.78;38.63;101099.47;5008386;28;20127;-74
2022/08/30 10:23:25;;;;;;;1.85;0.90;;;;;;;26.73;38.90;101102.56;5036637;28;20430;-75
2022/08/30 10:25:56;;;;;;;2.53;0.88;;;;;;;26.97;38.15;101102.41;5046768;28;20021;-75
2022/08/30 10:28:32;;;;;;;6.32;1.27;;;;;;;26.95;37.84;101090.72;5048467;28;20116;-73
2022/08/30 10:31:06;;;;;;;2.65;0.90;;;;;;;26.74;37.81;101098.59;5031187;28;20564;-75
2022/08/30 10:33:41;;;;;;;1.08;0.80;;;;;;;26.77;38.15;101097.88;5048812;28;20059;-73
2022/08/30 10:36:12;;;;;;;4.53;0.85;;;;;;;26.93;38.26;101101.50;5048852;28;20052;-73
2022/08/30 10:38:48;;;;;;;4.57;1.00;;;;;;;26.53;38.16;101105.19;5048029;28;20079;-74
2022/08/30 10:41:35;;;;;;;3.83;1.17;;;;;;;25.70;39.15;101101.97;5048354;28;20212;-72
2022/08/30 10:44:07;;;;;;;3.20;1.08;;;;;;;25.01;40.71;101104.56;5047195;28;20487;-75
2022/08/30 10:46:41;;;;;;;3.88;0.98;;;;;;;24.39;41.96;101102.41;5044899;28;20123;-74
2022/08/30 10:49:16;;;;;;;2.72;0.73;;;;;;;24.24;42.09;101097.47;5052688;28;20101;-77
2022/08/30 10:51:54;;;;;;;2.22;1.02;;;;;;;24.26;42.29;101108.31;5051718;28;20036;-74
2022/08/30 10:54:33;;;;;;;2.30;0.90;;;;;;;24.21;42.14;101106.50;5032282;28;20114;-74
2022/08/30 10:56:59;;;;;;;2.20;1.02;;;;;;;24.14;42.64;101106.28;5052187;28;20040;-74
2022/08/30 10:59:24;;;;;;;2.92;0.80;;;;;;;23.95;42.68;101106.75;5033405;28;20029;-76
2022/08/30 11:01:59;;;;;;;2.03;0.98;;;;;;;23.88;43.46;101105.31;5052274;28;20025;-74
2022/08/30 11:04:46;;;;;;;2.53;0.80;;;;;;;24.11;42.48;101107.78;5051261;28;20032;-74
2022/08/30 11:07:35;;;;;;;1.98;0.70;;;;;;;24.70;42.22;101105.91;5042842;28;20036;-72
2022/08/30 11:10:38;;;;;;;1.35;0.70;;;;;;;25.98;40.86;101115.22;5048500;28;20462;-75
2022/08/30 11:13:14;;;;;;;2.95;1.00;;;;;;;26.61;38.69;101115.44;5048089;28;20212;-73
2022/08/30 11:16:03;;;;;;;3.88;1.10;;;;;;;26.47;39.00;101109.44;5051384;28;20023;-73
2022/08/30 11:18:51;;;;;;;2.75;0.80;;;;;;;26.26;38.99;101121.69;5054407;28;20025;-76
2022/08/30 11:21:34;;;;;;;1.73;0.80;;;;;;;26.07;39.41;101107.53;5053077;28;20020;-73
2022/08/30 11:24:15;;;;;;;2.70;0.90;;;;;;;26.02;39.61;101104.97;5026531;28;20032;-75
2022/08/30 11:26:43;;;;;;;1.63;0.90;;;;;;;25.98;39.63;101106.81;5045300;28;20028;-73
2022/08/30 11:29:29;;;;;;;5.13;1.10;;;;;;;26.05;39.30;101104.25;5042878;28;20454;-73
2022/08/30 11:32:17;;;;;;;1.90;0.93;;;;;;;26.26;39.02;101101.25;5032215;28;20105;-76
2022/08/30 11:34:45;;;;;;;2.03;0.77;;;;;;;26.49;38.60;101109.91;5052156;28;20025;-74
2022/08/30 11:37:37;;;;;;;1.55;0.82;;;;;;;27.00;38.20;101112.91;5049324;28;20468;-74
2022/08/30 11:40:06;;;;;;;2.53;0.90;;;;;;;27.00;37.34;101100.88;5051224;28;20116;-76